Airport
Vladivostok International Airport (UHWW)

 UHWW / VVO
Khabarovsk CFPU
Khabarovsk (UHHH)
Khabarovsk (UHHH)
 43.39900, 132.14800  / 46 ft

 UHWW 211500Z 02002MPS 9999 NSC M07/M09 Q1031 R25L/820255 NOSIG RMK QFE772
 TAF UHWW 211100Z 2112/2212 VRB01MPS 9999 NSC TEMPO 2112/2124 0400 FZFG FM220000 18003MPS 9999 BKN020CB TEMPO 2200/2209 3100 -SHSN
UHWW_aip_1709
show charts
Scenery title Scenery type Flight Simulator 9 Flight Simulator X Prepar3D v2 Prepar3D v3 Prepar3D v4 xPlane
UHWW - test version for the Fly-inn only payware(+trial)
UHWW, Vladivostok 1.0.0 X-Flight freeware
UHWW, Vladivostok 2017 v 1.2 freeware
uhww-scenery-fs9-1408 freeware
uhww-scenery-fsx-1304 freeware
uhww-scenery-p3d-1502 freeware



2019 © VATRUS division (Privacy Policy)